sensor_id;sensor_type;location;lat;lon;timestamp;temperature;humidity
20066;DHT22;10193;48.884;9.182;2022-08-03T00:02:17;25.10;43.30
20066;DHT22;10193;48.884;9.182;2022-08-03T00:04:44;25.00;43.30
20066;DHT22;10193;48.884;9.182;2022-08-03T00:07:11;25.00;43.40
20066;DHT22;10193;48.884;9.182;2022-08-03T00:09:37;25.00;43.60
20066;DHT22;10193;48.884;9.182;2022-08-03T00:12:05;24.90;43.70
20066;DHT22;10193;48.884;9.182;2022-08-03T00:14:32;24.90;43.80
20066;DHT22;10193;48.884;9.182;2022-08-03T00:17:00;24.80;43.80
20066;DHT22;10193;48.884;9.182;2022-08-03T00:19:27;24.80;44.00
20066;DHT22;10193;48.884;9.182;2022-08-03T00:21:54;24.80;44.10
20066;DHT22;10193;48.884;9.182;2022-08-03T00:24:21;24.70;44.10
20066;DHT22;10193;48.884;9.182;2022-08-03T00:26:48;24.70;44.20
20066;DHT22;10193;48.884;9.182;2022-08-03T00:29:14;24.70;44.30
20066;DHT22;10193;48.884;9.182;2022-08-03T00:31:42;24.60;44.30
20066;DHT22;10193;48.884;9.182;2022-08-03T00:34:10;24.60;44.50
20066;DHT22;10193;48.884;9.182;2022-08-03T00:36:36;24.60;44.60
20066;DHT22;10193;48.884;9.182;2022-08-03T00:39:03;24.50;44.60
20066;DHT22;10193;48.884;9.182;2022-08-03T00:41:30;24.50;44.80
20066;DHT22;10193;48.884;9.182;2022-08-03T00:43:57;24.50;44.90
20066;DHT22;10193;48.884;9.182;2022-08-03T00:46:23;24.40;44.90
20066;DHT22;10193;48.884;9.182;2022-08-03T00:48:51;24.40;45.00
20066;DHT22;10193;48.884;9.182;2022-08-03T00:51:20;24.40;45.10
20066;DHT22;10193;48.884;9.182;2022-08-03T00:53:48;24.40;45.30
20066;DHT22;10193;48.884;9.182;2022-08-03T00:56:15;24.30;45.30
20066;DHT22;10193;48.884;9.182;2022-08-03T00:58:43;24.30;45.40
20066;DHT22;10193;48.884;9.182;2022-08-03T01:01:11;24.30;45.50
20066;DHT22;10193;48.884;9.182;2022-08-03T01:03:38;24.30;45.60
20066;DHT22;10193;48.884;9.182;2022-08-03T01:06:11;24.20;45.60
20066;DHT22;10193;48.884;9.182;2022-08-03T01:08:43;24.20;45.90
20066;DHT22;10193;48.884;9.182;2022-08-03T01:11:16;24.10;45.90
20066;DHT22;10193;48.884;9.182;2022-08-03T01:13:53;24.10;45.90
20066;DHT22;10193;48.884;9.182;2022-08-03T01:16:27;24.10;46.20
20066;DHT22;10193;48.884;9.182;2022-08-03T01:18:59;24.10;46.10
20066;DHT22;10193;48.884;9.182;2022-08-03T01:21:31;24.00;46.20
20066;DHT22;10193;48.884;9.182;2022-08-03T01:24:09;23.90;46.20
20066;DHT22;10193;48.884;9.182;2022-08-03T01:26:54;23.90;46.50
20066;DHT22;10193;48.884;9.182;2022-08-03T01:29:56;23.90;46.60
20066;DHT22;10193;48.884;9.182;2022-08-03T01:32:30;23.70;46.90
20066;DHT22;10193;48.884;9.182;2022-08-03T01:35:02;23.70;46.50
20066;DHT22;10193;48.884;9.182;2022-08-03T01:37:36;23.70;46.60
20066;DHT22;10193;48.884;9.182;2022-08-03T01:40:05;23.70;46.90
20066;DHT22;10193;48.884;9.182;2022-08-03T01:42:34;23.60;46.90
20066;DHT22;10193;48.884;9.182;2022-08-03T01:45:05;23.60;47.00
20066;DHT22;10193;48.884;9.182;2022-08-03T01:47:33;23.60;47.30
20066;DHT22;10193;48.884;9.182;2022-08-03T01:50:02;23.60;47.40
20066;DHT22;10193;48.884;9.182;2022-08-03T01:52:30;23.60;47.60
20066;DHT22;10193;48.884;9.182;2022-08-03T01:54:58;23.60;47.70
20066;DHT22;10193;48.884;9.182;2022-08-03T01:57:28;23.50;47.70
20066;DHT22;10193;48.884;9.182;2022-08-03T01:59:56;23.50;47.90
20066;DHT22;10193;48.884;9.182;2022-08-03T02:02:27;23.50;47.90
20066;DHT22;10193;48.884;9.182;2022-08-03T02:04:55;23.50;48.10
20066;DHT22;10193;48.884;9.182;2022-08-03T02:07:23;23.40;48.00
20066;DHT22;10193;48.884;9.182;2022-08-03T02:09:51;23.40;48.00
20066;DHT22;10193;48.884;9.182;2022-08-03T02:12:20;23.40;48.00
20066;DHT22;10193;48.884;9.182;2022-08-03T02:14:48;23.30;48.10
20066;DHT22;10193;48.884;9.182;2022-08-03T02:17:15;23.30;48.10
20066;DHT22;10193;48.884;9.182;2022-08-03T02:19:44;23.30;48.20
20066;DHT22;10193;48.884;9.182;2022-08-03T02:22:13;23.20;48.30
20066;DHT22;10193;48.884;9.182;2022-08-03T02:24:40;23.20;48.40
20066;DHT22;10193;48.884;9.182;2022-08-03T02:27:12;23.20;48.60
20066;DHT22;10193;48.884;9.182;2022-08-03T02:29:45;23.10;48.80
20066;DHT22;10193;48.884;9.182;2022-08-03T02:32:15;23.10;49.00
20066;DHT22;10193;48.884;9.182;2022-08-03T02:34:47;23.10;49.00
20066;DHT22;10193;48.884;9.182;2022-08-03T02:37:18;23.10;49.20
20066;DHT22;10193;48.884;9.182;2022-08-03T02:39:45;23.10;49.30
20066;DHT22;10193;48.884;9.182;2022-08-03T02:42:14;23.10;49.30
20066;DHT22;10193;48.884;9.182;2022-08-03T02:44:43;23.00;49.30
20066;DHT22;10193;48.884;9.182;2022-08-03T02:47:14;23.00;49.40
20066;DHT22;10193;48.884;9.182;2022-08-03T02:49:43;23.00;49.40
20066;DHT22;10193;48.884;9.182;2022-08-03T02:52:13;23.00;49.60
20066;DHT22;10193;48.884;9.182;2022-08-03T02:54:40;22.90;49.50
20066;DHT22;10193;48.884;9.182;2022-08-03T02:57:09;22.90;49.60
20066;DHT22;10193;48.884;9.182;2022-08-03T02:59:38;22.90;49.60
20066;DHT22;10193;48.884;9.182;2022-08-03T03:02:06;22.90;49.60
20066;DHT22;10193;48.884;9.182;2022-08-03T03:04:33;22.80;49.60
20066;DHT22;10193;48.884;9.182;2022-08-03T03:07:02;22.90;49.80
20066;DHT22;10193;48.884;9.182;2022-08-03T03:09:29;22.80;49.70
20066;DHT22;10193;48.884;9.182;2022-08-03T03:11:57;22.80;49.80
20066;DHT22;10193;48.884;9.182;2022-08-03T03:14:24;22.80;49.80
20066;DHT22;10193;48.884;9.182;2022-08-03T03:16:52;22.80;50.00
20066;DHT22;10193;48.884;9.182;2022-08-03T03:19:20;22.80;50.10
20066;DHT22;10193;48.884;9.182;2022-08-03T03:21:48;22.70;50.20
20066;DHT22;10193;48.884;9.182;2022-08-03T03:24:17;22.70;50.30
20066;DHT22;10193;48.884;9.182;2022-08-03T03:26:44;22.60;50.30
20066;DHT22;10193;48.884;9.182;2022-08-03T03:29:11;22.60;50.40
20066;DHT22;10193;48.884;9.182;2022-08-03T03:31:38;22.60;50.40
20066;DHT22;10193;48.884;9.182;2022-08-03T03:34:05;22.60;50.50
20066;DHT22;10193;48.884;9.182;2022-08-03T03:36:32;22.50;50.50
20066;DHT22;10193;48.884;9.182;2022-08-03T03:38:59;22.50;50.60
20066;DHT22;10193;48.884;9.182;2022-08-03T03:41:27;22.50;50.80
20066;DHT22;10193;48.884;9.182;2022-08-03T03:43:54;22.50;50.90
20066;DHT22;10193;48.884;9.182;2022-08-03T03:46:21;22.40;50.90
20066;DHT22;10193;48.884;9.182;2022-08-03T03:48:48;22.40;51.10
20066;DHT22;10193;48.884;9.182;2022-08-03T03:51:15;22.40;51.20
20066;DHT22;10193;48.884;9.182;2022-08-03T03:53:53;22.40;51.30
20066;DHT22;10193;48.884;9.182;2022-08-03T03:56:20;22.30;51.80
20066;DHT22;10193;48.884;9.182;2022-08-03T03:58:48;22.30;51.40
20066;DHT22;10193;48.884;9.182;2022-08-03T04:01:15;22.30;51.60
20066;DHT22;10193;48.884;9.182;2022-08-03T04:03:42;22.30;51.60
20066;DHT22;10193;48.884;9.182;2022-08-03T04:06:10;22.30;51.60
20066;DHT22;10193;48.884;9.182;2022-08-03T04:08:54;22.30;51.70
20066;DHT22;10193;48.884;9.182;2022-08-03T04:11:40;22.30;51.70
20066;DHT22;10193;48.884;9.182;2022-08-03T04:14:12;22.20;51.70
20066;DHT22;10193;48.884;9.182;2022-08-03T04:16:42;22.20;51.80
20066;DHT22;10193;48.884;9.182;2022-08-03T04:19:14;22.20;51.80
20066;DHT22;10193;48.884;9.182;2022-08-03T04:21:43;22.10;51.90
20066;DHT22;10193;48.884;9.182;2022-08-03T04:24:12;22.10;52.00
20066;DHT22;10193;48.884;9.182;2022-08-03T04:26:42;22.10;52.10
20066;DHT22;10193;48.884;9.182;2022-08-03T04:29:12;22.10;52.30
20066;DHT22;10193;48.884;9.182;2022-08-03T04:31:41;22.00;52.30
20066;DHT22;10193;48.884;9.182;2022-08-03T04:34:09;22.00;52.50
20066;DHT22;10193;48.884;9.182;2022-08-03T04:36:38;22.00;52.60
20066;DHT22;10193;48.884;9.182;2022-08-03T04:39:12;22.00;52.80
20066;DHT22;10193;48.884;9.182;2022-08-03T04:41:40;22.00;52.90
20066;DHT22;10193;48.884;9.182;2022-08-03T04:44:09;22.00;53.00
20066;DHT22;10193;48.884;9.182;2022-08-03T04:46:39;22.00;53.20
20066;DHT22;10193;48.884;9.182;2022-08-03T04:49:06;22.10;53.70
20066;DHT22;10193;48.884;9.182;2022-08-03T04:51:33;22.20;54.10
20066;DHT22;10193;48.884;9.182;2022-08-03T04:54:02;22.40;54.20
20066;DHT22;10193;48.884;9.182;2022-08-03T04:56:29;22.50;54.40
20066;DHT22;10193;48.884;9.182;2022-08-03T04:58:56;22.80;54.70
20066;DHT22;10193;48.884;9.182;2022-08-03T05:01:23;23.00;54.70
20066;DHT22;10193;48.884;9.182;2022-08-03T05:03:52;23.30;54.80
20066;DHT22;10193;48.884;9.182;2022-08-03T05:06:18;23.60;54.60
20066;DHT22;10193;48.884;9.182;2022-08-03T05:08:45;23.90;54.40
20066;DHT22;10193;48.884;9.182;2022-08-03T05:11:12;24.10;54.30
20066;DHT22;10193;48.884;9.182;2022-08-03T05:13:39;24.40;54.70
20066;DHT22;10193;48.884;9.182;2022-08-03T05:16:06;24.80;54.90
20066;DHT22;10193;48.884;9.182;2022-08-03T05:18:33;25.10;54.60
20066;DHT22;10193;48.884;9.182;2022-08-03T05:21:01;25.40;54.00
20066;DHT22;10193;48.884;9.182;2022-08-03T05:23:29;25.60;53.80
20066;DHT22;10193;48.884;9.182;2022-08-03T05:25:56;25.90;53.60
20066;DHT22;10193;48.884;9.182;2022-08-03T05:28:23;26.20;53.30
20066;DHT22;10193;48.884;9.182;2022-08-03T05:30:49;26.50;53.30
20066;DHT22;10193;48.884;9.182;2022-08-03T05:33:16;26.80;53.30
20066;DHT22;10193;48.884;9.182;2022-08-03T05:35:43;27.00;53.10
20066;DHT22;10193;48.884;9.182;2022-08-03T05:38:11;27.30;52.90
20066;DHT22;10193;48.884;9.182;2022-08-03T05:40:38;27.60;52.80
20066;DHT22;10193;48.884;9.182;2022-08-03T05:43:05;27.80;52.60
20066;DHT22;10193;48.884;9.182;2022-08-03T05:45:31;28.10;52.50
20066;DHT22;10193;48.884;9.182;2022-08-03T05:47:58;28.30;52.20
20066;DHT22;10193;48.884;9.182;2022-08-03T05:50:25;28.60;52.00
20066;DHT22;10193;48.884;9.182;2022-08-03T05:52:54;28.80;51.30
20066;DHT22;10193;48.884;9.182;2022-08-03T05:55:23;29.10;51.00
20066;DHT22;10193;48.884;9.182;2022-08-03T05:57:50;29.30;51.00
20066;DHT22;10193;48.884;9.182;2022-08-03T06:00:17;29.60;50.30
20066;DHT22;10193;48.884;9.182;2022-08-03T06:02:44;29.80;50.30
20066;DHT22;10193;48.884;9.182;2022-08-03T06:05:11;30.00;50.50
20066;DHT22;10193;48.884;9.182;2022-08-03T06:07:37;30.20;49.80
20066;DHT22;10193;48.884;9.182;2022-08-03T06:10:05;30.50;49.20
20066;DHT22;10193;48.884;9.182;2022-08-03T06:12:34;30.70;49.50
20066;DHT22;10193;48.884;9.182;2022-08-03T06:15:02;30.90;49.50
20066;DHT22;10193;48.884;9.182;2022-08-03T06:17:29;31.10;49.40
20066;DHT22;10193;48.884;9.182;2022-08-03T06:19:56;31.30;49.40
20066;DHT22;10193;48.884;9.182;2022-08-03T06:22:22;31.50;49.20
20066;DHT22;10193;48.884;9.182;2022-08-03T06:24:49;31.70;49.20
20066;DHT22;10193;48.884;9.182;2022-08-03T06:27:16;31.90;48.70
20066;DHT22;10193;48.884;9.182;2022-08-03T06:29:44;32.10;48.40
20066;DHT22;10193;48.884;9.182;2022-08-03T06:32:11;32.30;48.30
20066;DHT22;10193;48.884;9.182;2022-08-03T06:34:37;32.50;47.90
20066;DHT22;10193;48.884;9.182;2022-08-03T06:37:04;32.60;47.80
20066;DHT22;10193;48.884;9.182;2022-08-03T06:39:31;32.70;47.60
20066;DHT22;10193;48.884;9.182;2022-08-03T06:41:58;32.90;47.50
20066;DHT22;10193;48.884;9.182;2022-08-03T06:44:24;33.00;47.90
20066;DHT22;10193;48.884;9.182;2022-08-03T06:46:53;33.00;46.30
20066;DHT22;10193;48.884;9.182;2022-08-03T06:49:20;33.20;45.50
20066;DHT22;10193;48.884;9.182;2022-08-03T06:51:46;33.30;45.70
20066;DHT22;10193;48.884;9.182;2022-08-03T06:54:15;33.40;45.10
20066;DHT22;10193;48.884;9.182;2022-08-03T06:56:42;33.40;45.00
20066;DHT22;10193;48.884;9.182;2022-08-03T06:59:08;33.50;45.30
20066;DHT22;10193;48.884;9.182;2022-08-03T07:01:35;33.60;45.40
20066;DHT22;10193;48.884;9.182;2022-08-03T07:04:03;33.60;44.90
20066;DHT22;10193;48.884;9.182;2022-08-03T07:06:30;33.70;45.10
20066;DHT22;10193;48.884;9.182;2022-08-03T07:08:57;33.70;44.50
20066;DHT22;10193;48.884;9.182;2022-08-03T07:11:24;33.80;44.50
20066;DHT22;10193;48.884;9.182;2022-08-03T07:13:51;33.80;44.30
20066;DHT22;10193;48.884;9.182;2022-08-03T07:16:17;33.80;43.90
20066;DHT22;10193;48.884;9.182;2022-08-03T07:18:44;33.80;44.10
20066;DHT22;10193;48.884;9.182;2022-08-03T07:21:12;33.70;43.80
20066;DHT22;10193;48.884;9.182;2022-08-03T07:23:41;33.70;43.90
20066;DHT22;10193;48.884;9.182;2022-08-03T07:26:07;33.70;43.70
20066;DHT22;10193;48.884;9.182;2022-08-03T07:28:34;33.70;43.50
20066;DHT22;10193;48.884;9.182;2022-08-03T07:31:02;33.60;43.30
20066;DHT22;10193;48.884;9.182;2022-08-03T07:33:28;33.40;43.80
20066;DHT22;10193;48.884;9.182;2022-08-03T07:35:55;33.30;44.30
20066;DHT22;10193;48.884;9.182;2022-08-03T07:38:23;33.20;44.30
20066;DHT22;10193;48.884;9.182;2022-08-03T07:40:50;33.10;44.30
20066;DHT22;10193;48.884;9.182;2022-08-03T07:43:17;33.00;44.80
20066;DHT22;10193;48.884;9.182;2022-08-03T07:45:44;32.90;44.70
20066;DHT22;10193;48.884;9.182;2022-08-03T07:48:10;32.80;44.70
20066;DHT22;10193;48.884;9.182;2022-08-03T07:50:37;32.70;44.80
20066;DHT22;10193;48.884;9.182;2022-08-03T07:53:04;32.70;45.00
20066;DHT22;10193;48.884;9.182;2022-08-03T07:55:32;32.60;44.40
20066;DHT22;10193;48.884;9.182;2022-08-03T07:58:05;32.40;44.70
20066;DHT22;10193;48.884;9.182;2022-08-03T08:00:32;32.40;44.20
20066;DHT22;10193;48.884;9.182;2022-08-03T08:02:59;32.30;44.20
20066;DHT22;10193;48.884;9.182;2022-08-03T08:05:26;32.10;43.70
20066;DHT22;10193;48.884;9.182;2022-08-03T08:07:54;32.10;43.40
20066;DHT22;10193;48.884;9.182;2022-08-03T08:10:20;31.90;43.30
20066;DHT22;10193;48.884;9.182;2022-08-03T08:12:49;31.90;43.40
20066;DHT22;10193;48.884;9.182;2022-08-03T08:15:16;31.80;43.20
20066;DHT22;10193;48.884;9.182;2022-08-03T08:17:44;31.70;43.90
20066;DHT22;10193;48.884;9.182;2022-08-03T08:20:14;31.60;43.10
20066;DHT22;10193;48.884;9.182;2022-08-03T08:22:41;31.60;42.90
20066;DHT22;10193;48.884;9.182;2022-08-03T08:25:09;31.50;42.60
20066;DHT22;10193;48.884;9.182;2022-08-03T08:27:40;31.50;42.60
20066;DHT22;10193;48.884;9.182;2022-08-03T08:30:10;31.50;42.50
20066;DHT22;10193;48.884;9.182;2022-08-03T08:32:37;31.40;42.60
20066;DHT22;10193;48.884;9.182;2022-08-03T08:35:05;31.40;42.60
20066;DHT22;10193;48.884;9.182;2022-08-03T08:37:32;31.40;42.70
20066;DHT22;10193;48.884;9.182;2022-08-03T08:40:03;31.40;42.40
20066;DHT22;10193;48.884;9.182;2022-08-03T08:42:33;31.40;42.20
20066;DHT22;10193;48.884;9.182;2022-08-03T08:44:59;31.40;42.30
20066;DHT22;10193;48.884;9.182;2022-08-03T08:47:30;31.40;42.20
20066;DHT22;10193;48.884;9.182;2022-08-03T08:49:58;31.40;42.00
20066;DHT22;10193;48.884;9.182;2022-08-03T08:52:27;31.50;42.10
20066;DHT22;10193;48.884;9.182;2022-08-03T08:54:55;31.50;41.90
20066;DHT22;10193;48.884;9.182;2022-08-03T08:57:25;31.50;41.80
20066;DHT22;10193;48.884;9.182;2022-08-03T08:59:54;31.60;41.70
20066;DHT22;10193;48.884;9.182;2022-08-03T09:02:22;31.60;41.70
20066;DHT22;10193;48.884;9.182;2022-08-03T09:04:50;31.60;41.40
20066;DHT22;10193;48.884;9.182;2022-08-03T09:07:18;31.70;41.30
20066;DHT22;10193;48.884;9.182;2022-08-03T09:09:44;31.70;41.10
20066;DHT22;10193;48.884;9.182;2022-08-03T09:12:11;31.70;40.90
20066;DHT22;10193;48.884;9.182;2022-08-03T09:14:38;31.80;40.80
20066;DHT22;10193;48.884;9.182;2022-08-03T09:17:05;31.80;40.60
20066;DHT22;10193;48.884;9.182;2022-08-03T09:19:34;31.80;40.40
20066;DHT22;10193;48.884;9.182;2022-08-03T09:22:10;31.90;40.30
20066;DHT22;10193;48.884;9.182;2022-08-03T09:24:37;31.90;40.00
20066;DHT22;10193;48.884;9.182;2022-08-03T09:27:06;31.90;40.10
20066;DHT22;10193;48.884;9.182;2022-08-03T09:29:37;31.90;39.80
20066;DHT22;10193;48.884;9.182;2022-08-03T09:32:04;32.00;39.90
20066;DHT22;10193;48.884;9.182;2022-08-03T09:34:31;32.00;39.80
20066;DHT22;10193;48.884;9.182;2022-08-03T09:36:58;32.00;39.70
20066;DHT22;10193;48.884;9.182;2022-08-03T09:39:27;32.00;39.50
20066;DHT22;10193;48.884;9.182;2022-08-03T09:42:06;32.10;39.40
20066;DHT22;10193;48.884;9.182;2022-08-03T09:44:33;32.10;39.00
20066;DHT22;10193;48.884;9.182;2022-08-03T09:47:01;32.20;39.10
20066;DHT22;10193;48.884;9.182;2022-08-03T09:49:28;32.20;39.00
20066;DHT22;10193;48.884;9.182;2022-08-03T09:51:55;32.30;39.00
20066;DHT22;10193;48.884;9.182;2022-08-03T09:54:27;32.30;38.70
20066;DHT22;10193;48.884;9.182;2022-08-03T09:56:54;32.40;38.40
20066;DHT22;10193;48.884;9.182;2022-08-03T09:59:25;32.40;38.20
20066;DHT22;10193;48.884;9.182;2022-08-03T10:01:53;32.50;38.10
20066;DHT22;10193;48.884;9.182;2022-08-03T10:04:21;32.50;38.20
20066;DHT22;10193;48.884;9.182;2022-08-03T10:07:02;32.60;37.90
20066;DHT22;10193;48.884;9.182;2022-08-03T10:09:31;32.60;38.10
20066;DHT22;10193;48.884;9.182;2022-08-03T10:12:07;32.60;38.00
20066;DHT22;10193;48.884;9.182;2022-08-03T10:14:36;32.70;37.50
20066;DHT22;10193;48.884;9.182;2022-08-03T10:17:03;32.70;37.80
20066;DHT22;10193;48.884;9.182;2022-08-03T10:19:30;32.80;37.60
20066;DHT22;10193;48.884;9.182;2022-08-03T10:22:12;32.80;37.40
20066;DHT22;10193;48.884;9.182;2022-08-03T10:24:48;32.90;36.40
20066;DHT22;10193;48.884;9.182;2022-08-03T10:27:18;32.80;36.80
20066;DHT22;10193;48.884;9.182;2022-08-03T10:29:50;32.90;36.80
20066;DHT22;10193;48.884;9.182;2022-08-03T10:32:23;32.90;36.90
20066;DHT22;10193;48.884;9.182;2022-08-03T10:34:56;32.90;37.00
20066;DHT22;10193;48.884;9.182;2022-08-03T10:37:29;33.00;37.00
20066;DHT22;10193;48.884;9.182;2022-08-03T10:39:59;33.00;37.20
20066;DHT22;10193;48.884;9.182;2022-08-03T10:42:27;33.10;37.20
20066;DHT22;10193;48.884;9.182;2022-08-03T10:45:02;33.10;37.20
20066;DHT22;10193;48.884;9.182;2022-08-03T10:47:29;33.20;37.10
20066;DHT22;10193;48.884;9.182;2022-08-03T10:49:57;33.20;37.10
20066;DHT22;10193;48.884;9.182;2022-08-03T10:52:24;33.30;37.00
20066;DHT22;10193;48.884;9.182;2022-08-03T10:54:51;33.30;36.90
20066;DHT22;10193;48.884;9.182;2022-08-03T10:57:44;33.40;36.80
20066;DHT22;10193;48.884;9.182;2022-08-03T11:00:12;33.40;36.30
20066;DHT22;10193;48.884;9.182;2022-08-03T11:03:05;33.50;36.40
20066;DHT22;10193;48.884;9.182;2022-08-03T11:05:35;33.40;35.90
20066;DHT22;10193;48.884;9.182;2022-08-03T11:08:28;33.50;36.10
20066;DHT22;10193;48.884;9.182;2022-08-03T11:10:58;33.50;35.90
20066;DHT22;10193;48.884;9.182;2022-08-03T11:13:28;33.50;36.00
20066;DHT22;10193;48.884;9.182;2022-08-03T11:15:58;33.50;36.10
20066;DHT22;10193;48.884;9.182;2022-08-03T11:18:25;33.50;36.00
20066;DHT22;10193;48.884;9.182;2022-08-03T11:20:53;33.50;35.90
20066;DHT22;10193;48.884;9.182;2022-08-03T11:23:38;33.50;36.40
20066;DHT22;10193;48.884;9.182;2022-08-03T11:26:13;33.50;36.50
20066;DHT22;10193;48.884;9.182;2022-08-03T11:28:43;33.60;36.40
20066;DHT22;10193;48.884;9.182;2022-08-03T11:31:46;33.70;36.40
20066;DHT22;10193;48.884;9.182;2022-08-03T11:34:14;33.60;36.00
20066;DHT22;10193;48.884;9.182;2022-08-03T11:37:19;33.70;36.20
20066;DHT22;10193;48.884;9.182;2022-08-03T11:39:50;33.70;35.80
20066;DHT22;10193;48.884;9.182;2022-08-03T11:42:39;33.80;36.00
20066;DHT22;10193;48.884;9.182;2022-08-03T11:45:09;33.90;35.70
20066;DHT22;10193;48.884;9.182;2022-08-03T11:47:38;34.00;35.60
20066;DHT22;10193;48.884;9.182;2022-08-03T11:50:06;34.00;35.20
20066;DHT22;10193;48.884;9.182;2022-08-03T11:52:38;34.00;34.90
20066;DHT22;10193;48.884;9.182;2022-08-03T11:55:16;34.00;34.70
20066;DHT22;10193;48.884;9.182;2022-08-03T11:57:45;34.00;34.50
20066;DHT22;10193;48.884;9.182;2022-08-03T12:00:34;34.10;35.00
20066;DHT22;10193;48.884;9.182;2022-08-03T12:03:04;34.10;34.90
20066;DHT22;10193;48.884;9.182;2022-08-03T12:05:35;34.10;35.10
20066;DHT22;10193;48.884;9.182;2022-08-03T12:08:03;34.10;34.90
20066;DHT22;10193;48.884;9.182;2022-08-03T12:10:29;34.20;35.60
20066;DHT22;10193;48.884;9.182;2022-08-03T12:12:58;34.20;34.90
20066;DHT22;10193;48.884;9.182;2022-08-03T12:15:26;34.30;34.60
20066;DHT22;10193;48.884;9.182;2022-08-03T12:17:55;34.40;34.30
20066;DHT22;10193;48.884;9.182;2022-08-03T12:20:24;34.40;34.00
20066;DHT22;10193;48.884;9.182;2022-08-03T12:22:51;34.40;34.60
20066;DHT22;10193;48.884;9.182;2022-08-03T12:25:24;34.50;33.80
20066;DHT22;10193;48.884;9.182;2022-08-03T12:27:52;34.50;33.40
20066;DHT22;10193;48.884;9.182;2022-08-03T12:30:19;34.50;33.40
20066;DHT22;10193;48.884;9.182;2022-08-03T12:32:46;34.50;33.30
20066;DHT22;10193;48.884;9.182;2022-08-03T12:35:23;34.60;33.50
20066;DHT22;10193;48.884;9.182;2022-08-03T12:37:51;34.50;33.10
20066;DHT22;10193;48.884;9.182;2022-08-03T12:40:24;34.60;33.50
20066;DHT22;10193;48.884;9.182;2022-08-03T12:42:52;34.60;32.90
20066;DHT22;10193;48.884;9.182;2022-08-03T12:45:23;34.60;33.10
20066;DHT22;10193;48.884;9.182;2022-08-03T12:47:51;34.60;32.80
20066;DHT22;10193;48.884;9.182;2022-08-03T12:50:28;34.60;32.80
20066;DHT22;10193;48.884;9.182;2022-08-03T12:52:55;34.70;32.80
20066;DHT22;10193;48.884;9.182;2022-08-03T12:55:23;34.70;32.80
20066;DHT22;10193;48.884;9.182;2022-08-03T12:57:50;34.70;32.70
20066;DHT22;10193;48.884;9.182;2022-08-03T13:00:18;34.70;32.60
20066;DHT22;10193;48.884;9.182;2022-08-03T13:02:45;34.70;32.50
20066;DHT22;10193;48.884;9.182;2022-08-03T13:05:12;34.70;32.50
20066;DHT22;10193;48.884;9.182;2022-08-03T13:07:41;34.60;32.60
20066;DHT22;10193;48.884;9.182;2022-08-03T13:10:09;34.60;32.60
20066;DHT22;10193;48.884;9.182;2022-08-03T13:12:45;34.60;32.50
20066;DHT22;10193;48.884;9.182;2022-08-03T13:15:12;34.60;32.10
20066;DHT22;10193;48.884;9.182;2022-08-03T13:17:39;34.60;32.60
20066;DHT22;10193;48.884;9.182;2022-08-03T13:20:07;34.60;33.20
20066;DHT22;10193;48.884;9.182;2022-08-03T13:22:34;34.60;32.60
20066;DHT22;10193;48.884;9.182;2022-08-03T13:25:03;34.70;32.70
20066;DHT22;10193;48.884;9.182;2022-08-03T13:27:30;34.80;32.60
20066;DHT22;10193;48.884;9.182;2022-08-03T13:29:57;34.80;32.70
20066;DHT22;10193;48.884;9.182;2022-08-03T13:32:24;34.80;32.40
20066;DHT22;10193;48.884;9.182;2022-08-03T13:34:51;34.80;32.30
20066;DHT22;10193;48.884;9.182;2022-08-03T13:37:18;34.90;32.70
20066;DHT22;10193;48.884;9.182;2022-08-03T13:39:44;34.90;32.50
20066;DHT22;10193;48.884;9.182;2022-08-03T13:42:13;34.90;32.60
20066;DHT22;10193;48.884;9.182;2022-08-03T13:44:40;35.00;32.50
20066;DHT22;10193;48.884;9.182;2022-08-03T13:47:07;35.00;32.40
20066;DHT22;10193;48.884;9.182;2022-08-03T13:49:34;35.00;32.40
20066;DHT22;10193;48.884;9.182;2022-08-03T13:52:00;35.00;32.20
20066;DHT22;10193;48.884;9.182;2022-08-03T13:54:27;35.10;32.00
20066;DHT22;10193;48.884;9.182;2022-08-03T13:56:55;35.10;31.90
20066;DHT22;10193;48.884;9.182;2022-08-03T13:59:24;35.10;32.00
20066;DHT22;10193;48.884;9.182;2022-08-03T14:01:52;35.10;32.10
20066;DHT22;10193;48.884;9.182;2022-08-03T14:04:20;35.10;32.00
20066;DHT22;10193;48.884;9.182;2022-08-03T14:06:47;35.20;32.00
20066;DHT22;10193;48.884;9.182;2022-08-03T14:09:16;35.20;31.90
20066;DHT22;10193;48.884;9.182;2022-08-03T14:11:43;35.20;32.00
20066;DHT22;10193;48.884;9.182;2022-08-03T14:14:10;35.20;31.90
20066;DHT22;10193;48.884;9.182;2022-08-03T14:16:38;35.30;31.70
20066;DHT22;10193;48.884;9.182;2022-08-03T14:19:06;35.30;31.60
20066;DHT22;10193;48.884;9.182;2022-08-03T14:21:33;35.30;31.60
20066;DHT22;10193;48.884;9.182;2022-08-03T14:24:00;35.30;31.60
20066;DHT22;10193;48.884;9.182;2022-08-03T14:26:26;35.30;31.20
20066;DHT22;10193;48.884;9.182;2022-08-03T14:28:54;35.20;31.00
20066;DHT22;10193;48.884;9.182;2022-08-03T14:31:21;35.20;30.90
20066;DHT22;10193;48.884;9.182;2022-08-03T14:33:50;35.20;30.70
20066;DHT22;10193;48.884;9.182;2022-08-03T14:36:17;35.10;30.60
20066;DHT22;10193;48.884;9.182;2022-08-03T14:38:44;35.10;30.40
20066;DHT22;10193;48.884;9.182;2022-08-03T14:41:10;35.10;30.40
20066;DHT22;10193;48.884;9.182;2022-08-03T14:43:37;35.10;30.40
20066;DHT22;10193;48.884;9.182;2022-08-03T14:46:04;35.10;30.30
20066;DHT22;10193;48.884;9.182;2022-08-03T14:48:31;35.10;30.30
20066;DHT22;10193;48.884;9.182;2022-08-03T14:51:00;35.10;30.10
20066;DHT22;10193;48.884;9.182;2022-08-03T14:53:27;35.10;30.00
20066;DHT22;10193;48.884;9.182;2022-08-03T14:55:54;35.10;30.10
20066;DHT22;10193;48.884;9.182;2022-08-03T14:58:22;35.10;30.10
20066;DHT22;10193;48.884;9.182;2022-08-03T15:00:52;35.10;30.10
20066;DHT22;10193;48.884;9.182;2022-08-03T15:03:20;35.20;30.10
20066;DHT22;10193;48.884;9.182;2022-08-03T15:05:47;35.20;30.30
20066;DHT22;10193;48.884;9.182;2022-08-03T15:08:16;35.20;30.10
20066;DHT22;10193;48.884;9.182;2022-08-03T15:10:42;35.20;30.00
20066;DHT22;10193;48.884;9.182;2022-08-03T15:13:09;35.20;30.00
20066;DHT22;10193;48.884;9.182;2022-08-03T15:15:36;35.20;30.00
20066;DHT22;10193;48.884;9.182;2022-08-03T15:18:03;35.20;29.90
20066;DHT22;10193;48.884;9.182;2022-08-03T15:20:30;35.20;29.90
20066;DHT22;10193;48.884;9.182;2022-08-03T15:22:57;35.20;29.90
20066;DHT22;10193;48.884;9.182;2022-08-03T15:25:25;35.20;30.00
20066;DHT22;10193;48.884;9.182;2022-08-03T15:27:52;35.20;29.80
20066;DHT22;10193;48.884;9.182;2022-08-03T15:30:19;35.20;29.90
20066;DHT22;10193;48.884;9.182;2022-08-03T15:32:45;35.20;30.00
20066;DHT22;10193;48.884;9.182;2022-08-03T15:35:12;35.20;29.90
20066;DHT22;10193;48.884;9.182;2022-08-03T15:37:40;35.20;29.90
20066;DHT22;10193;48.884;9.182;2022-08-03T15:40:07;35.20;29.90
20066;DHT22;10193;48.884;9.182;2022-08-03T15:42:46;35.20;29.90